Clayton Center, Iowa
Current Conditions -  °F | °C
As of 6:35 AM on Thursday 23 Oct 2014 (Local Time) from KPDC Reporting Station
Light Rain Light Rain  
Wind Chill: 51°   Ceiling: 4500
Heat Index: 51°   Visibility: 10mi
Dew Point: 38°   Wind: 6mph
Humidity: 62%   Direction: 120°ESE
Pressure: 30.1"   Gusts: NA
Location:  42.8388°N, 91.4421°W
Report Text: KPDC 231135Z AUTO 12005KT 10SM -RA OVC045 10/03 A3010 RMK AO2 T01030033
Loading
Personal Weather Stations






























Interactive Weather Map
Tropical Storm Tracking
New forecast layout! Learn more

10-Day Weather Forecast

Advertisements
Track Severe Weather on mobile